ARBO2: Arbuckle Lake

                                SHEF ID:       ARBO2     Arbuckle Lake
STATION TYPE: RESERVOIR
Flood Pool: Bottom = 872.00, Top = 885.30

PRECIP PRECIP(A) ELEVATION STORAGE INFLOW RELEASEWIND-SPEED VOLTAGE BAT-LOAD
in in ft ac-ft cfs cfs mph volt volt
Ccp-Rev Ccp-Rev Ccp-Rev Ccp-Rev Rev-Regi Rev-Regi Ccp-Rev Ccp-Rev Ccp-Rev
(America/Chicago)
05/03 00:00 0.00 ---- 873.50 75993 26 164 ---- 13.05 12.89
05/03 01:00 0.00 ---- 873.49 75969 8 164 ---- 13.05 12.89
05/03 02:00 0.00 ---- 873.48 75945 8 164 ---- 13.05 12.89
05/03 03:00 0.00 ---- 873.48 75945 8 164 ---- 13.05 12.89
05/03 04:00 0.00 ---- 873.47 75920 8 164 ---- 13.05 12.89
05/03 05:00 0.00 ---- 873.47 75920 24 164 ---- 13.05 12.89
05/03 06:00 0.00 ---- 873.45 75872 24 164 ---- 13.05 12.89
05/03 07:00 0.00 ---- 873.45 75872 24 164 ---- 13.05 12.89
05/03 08:00 0.00 ---- 873.45 75872 22 164 ---- 13.05 12.89
05/03 09:00 0.00 ---- 873.44 75847 81 164 ---- 13.05 12.89
05/03 10:00 0.00 ---- 873.43 75823 83 164 ---- 13.05 12.89
05/03 11:00 0.00 ---- 873.44 75847 102 164 ---- 13.05 12.89
05/03 12:00 0.00 ---- 873.44 75847 121 164 ---- 13.05 12.89
05/03 13:00 0.00 ---- 873.44 75847 151 164 ---- 13.05 12.89
05/03 14:00 0.00 ---- 873.44 75847 178 164 ---- 13.05 12.89
05/03 15:00 0.00 ---- 873.44 75847 187 164 ---- 13.05 12.89
05/03 16:00 0.00 ---- 873.45 75872 197 164 ---- 13.05 12.89
05/03 17:00 0.00 ---- 873.45 75872 179 164 ---- 13.05 12.89
05/03 18:00 0.00 ---- 873.45 75872 152 164 ---- 13.05 12.89
05/03 19:00 0.00 ---- 873.45 75872 100 164 ---- 13.05 12.89
05/03 20:00 0.00 ---- 873.44 75847 102 164 ---- 13.05 12.89
05/03 21:00 0.00 ---- 873.44 75847 105 164 ---- 13.05 12.89
05/03 22:00 0.00 ---- 873.44 75847 134 164 ---- 13.05 12.89
05/03 23:00 0.00 ---- 873.43 75823 ---- ---- ---- 13.05 12.89
Data processed at Mon 04May2026 04:03 GMT

NOTICE: If you are parsing this page

Please convert to using our Data API. Starting early 2026 we will be migrating to: https://water.usace.army.mil with modern pages rendered in JavaScript. When this migration completes you will no longer be able to scrape this page! CWMSDataAPI (CDA)

Timeseries IDs (TSIDs)

TSIDs used from left to right in the data table
ARBU.Precip-Inc.Total.1Hour.1Hour.Ccp-Rev
ARBU.Precip-Inc Alt.Total.1Hour.1Hour.Ccp-Rev
ARBU.Elev.Inst.1Hour.0.Ccp-Rev
ARBU.Stor.Inst.1Hour.0.Ccp-Rev
ARBU.Flow-Res In.Ave.1Hour.1Hour.Rev-Regi-Computed
ARBU.Flow-Res Out.Inst.1Hour.0.Rev-Regi-Flowgroup
ARBU.Volt-Battery.Inst.1Hour.0.Ccp-Rev
ARBU.Volt-Battery Load.Inst.1Hour.0.Ccp-Rev

                            

All information presented herein is the property of the government of the United States of America and may be revised or deleted at any time without prior notice. Dissemination of this information without the expressed written consent of the Public Affairs Office, Tulsa District U.S. Army Corps of Engineers is strictly prohibited. These data are gathered electronically and, as presented, have NOT undergone any form of quality control. These data are NOT guaranteed to be valid or correct.